createdAt,value
2017-01-25T00:00:19.722Z,933.32
2017-01-25T00:00:48.072Z,933.33
2017-01-25T00:01:16.674Z,933.34
2017-01-25T00:01:44.984Z,933.32
2017-01-25T00:02:13.139Z,933.33
2017-01-25T00:02:41.426Z,933.34
2017-01-25T00:03:09.592Z,933.3
2017-01-25T00:03:37.864Z,933.31
2017-01-25T00:04:06.048Z,933.26
2017-01-25T00:04:34.368Z,933.24
2017-01-25T00:05:02.623Z,933.26
2017-01-25T00:05:30.766Z,933.22
2017-01-25T00:05:58.953Z,933.2
2017-01-25T00:06:27.103Z,933.19
2017-01-25T00:06:55.303Z,933.15
2017-01-25T00:07:23.478Z,933.2
2017-01-25T00:07:51.658Z,933.17
2017-01-25T00:08:19.805Z,933.16
2017-01-25T00:08:48.060Z,933.19
2017-01-25T00:09:16.250Z,933.18
2017-01-25T00:09:44.438Z,933.21
2017-01-25T00:10:12.600Z,933.17
2017-01-25T00:10:40.751Z,933.21
2017-01-25T00:11:08.917Z,933.22
2017-01-25T00:11:37.228Z,933.24
2017-01-25T00:12:05.384Z,933.18
2017-01-25T00:12:33.550Z,933.2
2017-01-25T00:13:01.837Z,933.19
2017-01-25T00:13:30.554Z,933.17
2017-01-25T00:13:58.716Z,933.11
2017-01-25T00:14:26.898Z,933.16
2017-01-25T00:14:55.056Z,933.15
2017-01-25T00:15:23.329Z,933.11
2017-01-25T00:15:51.483Z,933.12
2017-01-25T00:16:19.740Z,933.12
2017-01-25T00:16:47.941Z,933.12
2017-01-25T00:17:16.115Z,933.07
2017-01-25T00:17:44.461Z,933.09
2017-01-25T00:18:12.643Z,933.04
2017-01-25T00:18:40.796Z,933
2017-01-25T00:19:09.059Z,933.01
2017-01-25T00:19:37.234Z,933.01
2017-01-25T00:20:05.389Z,933.01
2017-01-25T00:20:33.519Z,933.06
2017-01-25T00:21:01.663Z,933.07
2017-01-25T00:21:29.842Z,933.08
2017-01-25T00:21:58.023Z,933.07
2017-01-25T00:22:26.355Z,933.1
2017-01-25T00:22:54.529Z,933.11
2017-01-25T00:23:22.843Z,933.08
2017-01-25T00:23:51.013Z,933.08
2017-01-25T00:24:19.191Z,933.1
2017-01-25T00:24:47.465Z,933.07
2017-01-25T00:25:15.601Z,933.08
2017-01-25T00:25:43.789Z,933.06
2017-01-25T00:26:11.951Z,933.06
2017-01-25T00:26:40.219Z,933.04
2017-01-25T00:27:08.471Z,933.04
2017-01-25T00:27:36.767Z,933.04
2017-01-25T00:28:04.957Z,933.05
2017-01-25T00:28:33.135Z,933.07
2017-01-25T00:29:01.310Z,933.07
2017-01-25T00:29:29.472Z,933.06
2017-01-25T00:29:57.727Z,933.07
2017-01-25T00:30:25.980Z,933.05
2017-01-25T00:30:54.139Z,933.07
2017-01-25T00:31:22.298Z,933.1
2017-01-25T00:31:50.450Z,933.1
2017-01-25T00:32:18.694Z,933.1
2017-01-25T00:32:46.848Z,933.09
2017-01-25T00:33:15.072Z,933.1
2017-01-25T00:33:43.240Z,933.09
2017-01-25T00:34:11.424Z,933.06
2017-01-25T00:34:39.577Z,933.08
2017-01-25T00:35:07.711Z,933.06
2017-01-25T00:35:35.839Z,933.07
2017-01-25T00:36:04.065Z,933.01
2017-01-25T00:36:32.207Z,933.03
2017-01-25T00:37:00.388Z,933.04
2017-01-25T00:37:28.632Z,933.03
2017-01-25T00:37:56.916Z,933.03
2017-01-25T00:38:25.078Z,932.99
2017-01-25T00:38:53.262Z,932.98
2017-01-25T00:39:21.443Z,933.05
2017-01-25T00:39:49.603Z,933.03
2017-01-25T00:40:17.795Z,933.06
2017-01-25T00:40:45.951Z,933.07
2017-01-25T00:41:14.129Z,933.07
2017-01-25T00:41:42.374Z,933.14
2017-01-25T00:42:10.543Z,933.08
2017-01-25T00:42:38.708Z,933.1
2017-01-25T00:43:06.931Z,933.09
2017-01-25T00:43:35.165Z,933.11
2017-01-25T00:44:03.333Z,933.11
2017-01-25T00:44:31.568Z,933.1
2017-01-25T00:44:59.764Z,933.15
2017-01-25T00:45:28.022Z,933.13
2017-01-25T00:45:56.307Z,933.2
2017-01-25T00:46:24.530Z,933.23
2017-01-25T00:46:52.705Z,933.25
2017-01-25T00:47:20.864Z,933.24
2017-01-25T00:47:49.064Z,933.22
2017-01-25T00:48:17.329Z,933.2
2017-01-25T00:48:45.508Z,933.28
2017-01-25T00:49:13.646Z,933.22
2017-01-25T00:49:42.020Z,933.24
2017-01-25T00:50:10.176Z,933.26
2017-01-25T00:50:38.341Z,933.26
2017-01-25T00:51:06.509Z,933.3
2017-01-25T00:51:34.700Z,933.27
2017-01-25T00:52:02.864Z,933.29
2017-01-25T00:52:31.009Z,933.33
2017-01-25T00:52:59.158Z,933.34
2017-01-25T00:53:27.303Z,933.28
2017-01-25T00:53:55.540Z,933.33
2017-01-25T00:54:23.716Z,933.35
2017-01-25T00:54:51.876Z,933.34
2017-01-25T00:55:20.081Z,933.3
2017-01-25T00:55:48.238Z,933.32
2017-01-25T00:56:16.381Z,933.34
2017-01-25T00:56:44.520Z,933.33
2017-01-25T00:57:12.686Z,933.3
2017-01-25T00:57:40.890Z,933.32
2017-01-25T00:58:09.052Z,933.36
2017-01-25T00:58:37.236Z,933.34
2017-01-25T00:59:05.497Z,933.35
2017-01-25T00:59:33.669Z,933.34
2017-01-25T01:00:01.849Z,933.35
2017-01-25T01:00:30.045Z,933.35
2017-01-25T01:00:58.247Z,933.39
2017-01-25T01:01:26.428Z,933.37
2017-01-25T01:01:54.609Z,933.35
2017-01-25T01:02:22.770Z,933.36
2017-01-25T01:02:50.922Z,933.4
2017-01-25T01:03:19.070Z,933.36
2017-01-25T01:03:47.238Z,933.37
2017-01-25T01:04:15.392Z,933.39
2017-01-25T01:04:43.520Z,933.44
2017-01-25T01:05:11.759Z,933.43
2017-01-25T01:05:39.932Z,933.41
2017-01-25T01:06:08.078Z,933.45
2017-01-25T01:06:36.260Z,933.47
2017-01-25T01:07:04.531Z,933.45
2017-01-25T01:07:32.705Z,933.47
2017-01-25T01:08:00.865Z,933.46
2017-01-25T01:08:29.052Z,933.46
2017-01-25T01:08:57.252Z,933.47
2017-01-25T01:09:25.410Z,933.48
2017-01-25T01:09:53.567Z,933.49
2017-01-25T01:10:21.725Z,933.46
2017-01-25T01:10:49.871Z,933.47
2017-01-25T01:11:18.064Z,933.45
2017-01-25T01:11:46.176Z,933.44
2017-01-25T01:12:14.443Z,933.48
2017-01-25T01:12:42.650Z,933.41
2017-01-25T01:13:10.823Z,933.41
2017-01-25T01:13:38.981Z,933.44
2017-01-25T01:14:07.149Z,933.47
2017-01-25T01:14:35.418Z,933.45
2017-01-25T01:15:03.602Z,933.44
2017-01-25T01:15:31.758Z,933.42
2017-01-25T01:15:59.941Z,933.46
2017-01-25T01:16:28.111Z,933.49
2017-01-25T01:16:56.380Z,933.48
2017-01-25T01:17:24.538Z,933.49
2017-01-25T01:17:52.693Z,933.53
2017-01-25T01:18:20.841Z,933.5
2017-01-25T01:18:49.128Z,933.54
2017-01-25T01:19:17.349Z,933.52
2017-01-25T01:19:45.553Z,933.53
2017-01-25T01:20:13.719Z,933.54
2017-01-25T01:20:42.011Z,933.55
2017-01-25T01:21:10.156Z,933.54
2017-01-25T01:21:38.348Z,933.56
2017-01-25T01:22:06.661Z,933.57
2017-01-25T01:22:34.831Z,933.56
2017-01-25T01:23:03.023Z,933.57
2017-01-25T01:23:31.186Z,933.6
2017-01-25T01:23:59.353Z,933.55
2017-01-25T01:24:27.493Z,933.54
2017-01-25T01:24:56.125Z,933.53
2017-01-25T01:25:24.276Z,933.53
2017-01-25T01:25:52.443Z,933.57
2017-01-25T01:26:20.596Z,933.57
2017-01-25T01:26:48.840Z,933.59
2017-01-25T01:27:17.087Z,933.61
2017-01-25T01:27:45.236Z,933.58
2017-01-25T01:28:13.383Z,933.58
2017-01-25T01:28:41.553Z,933.61
2017-01-25T01:29:09.732Z,933.56
2017-01-25T01:29:37.891Z,933.57
2017-01-25T01:30:06.051Z,933.61
2017-01-25T01:30:34.223Z,933.59
2017-01-25T01:31:02.409Z,933.55
2017-01-25T01:31:30.565Z,933.54
2017-01-25T01:31:58.715Z,933.57
2017-01-25T01:32:26.922Z,933.54
2017-01-25T01:32:55.055Z,933.55
2017-01-25T01:33:23.312Z,933.58
2017-01-25T01:33:51.497Z,933.57
2017-01-25T01:34:19.644Z,933.57
2017-01-25T01:34:47.816Z,933.59
2017-01-25T01:35:15.996Z,933.56
2017-01-25T01:35:44.120Z,933.6
2017-01-25T01:36:12.318Z,933.6
2017-01-25T01:36:40.523Z,933.6
2017-01-25T01:37:08.682Z,933.61
2017-01-25T01:37:36.907Z,933.6
2017-01-25T01:38:05.104Z,933.63
2017-01-25T01:38:33.786Z,933.63
2017-01-25T01:39:02.544Z,933.62
2017-01-25T01:39:31.125Z,933.65
2017-01-25T01:39:59.746Z,933.65
2017-01-25T01:40:28.592Z,933.66
2017-01-25T01:40:57.435Z,933.64
2017-01-25T01:41:26.141Z,933.67
2017-01-25T01:41:54.942Z,933.63
2017-01-25T01:42:23.800Z,933.64
2017-01-25T01:42:52.534Z,933.63
2017-01-25T01:43:21.250Z,933.62
2017-01-25T01:43:50.018Z,933.68
2017-01-25T01:44:18.636Z,933.65
2017-01-25T01:44:47.327Z,933.7
2017-01-25T01:45:15.747Z,933.7
2017-01-25T01:45:44.044Z,933.71
2017-01-25T01:46:12.259Z,933.69
2017-01-25T01:46:40.452Z,933.76
2017-01-25T01:47:08.645Z,933.71
2017-01-25T01:47:36.807Z,933.7
2017-01-25T01:48:05.026Z,933.69
2017-01-25T01:48:33.276Z,933.67
2017-01-25T01:49:01.557Z,933.7
2017-01-25T01:49:29.708Z,933.65
2017-01-25T01:49:57.913Z,933.64
2017-01-25T01:50:26.085Z,933.66
2017-01-25T01:50:54.237Z,933.66
2017-01-25T01:51:22.376Z,933.64
2017-01-25T01:51:50.570Z,933.64
2017-01-25T01:52:18.729Z,933.65
2017-01-25T01:52:46.900Z,933.7
2017-01-25T01:53:15.081Z,933.71
2017-01-25T01:53:43.344Z,933.66
2017-01-25T01:54:11.520Z,933.67
2017-01-25T01:54:39.717Z,933.68
2017-01-25T01:55:07.966Z,933.66
2017-01-25T01:55:36.217Z,933.68
2017-01-25T01:56:04.423Z,933.7
2017-01-25T01:56:32.591Z,933.67
2017-01-25T01:57:01.108Z,933.67
2017-01-25T01:57:29.771Z,933.7
2017-01-25T01:57:57.937Z,933.69
2017-01-25T01:58:26.217Z,933.66
2017-01-25T01:58:54.373Z,933.66
2017-01-25T01:59:22.781Z,933.61
2017-01-25T01:59:50.944Z,933.63
2017-01-25T02:00:19.117Z,933.66
2017-01-25T02:00:47.272Z,933.64
2017-01-25T02:01:15.436Z,933.61
2017-01-25T02:01:43.589Z,933.63
2017-01-25T02:02:12.005Z,933.68
2017-01-25T02:02:40.151Z,933.65
2017-01-25T02:03:08.293Z,933.68
2017-01-25T02:03:36.510Z,933.68
2017-01-25T02:04:04.666Z,933.67
2017-01-25T02:04:32.930Z,933.65
2017-01-25T02:05:01.086Z,933.69
2017-01-25T02:05:29.413Z,933.71
2017-01-25T02:05:57.571Z,933.67
2017-01-25T02:06:25.748Z,933.72
2017-01-25T02:06:53.904Z,933.72
2017-01-25T02:07:22.078Z,933.7
2017-01-25T02:07:50.279Z,933.69
2017-01-25T02:08:18.431Z,933.7
2017-01-25T02:08:46.624Z,933.67
2017-01-25T02:09:14.783Z,933.7
2017-01-25T02:09:42.969Z,933.67
2017-01-25T02:10:11.166Z,933.68
2017-01-25T02:10:39.379Z,933.68
2017-01-25T02:11:07.724Z,933.66
2017-01-25T02:11:35.931Z,933.62
2017-01-25T02:12:04.288Z,933.63
2017-01-25T02:12:32.501Z,933.64
2017-01-25T02:13:00.738Z,933.68
2017-01-25T02:13:29.011Z,933.67
2017-01-25T02:13:57.220Z,933.68
2017-01-25T02:14:25.481Z,933.72
2017-01-25T02:14:53.680Z,933.73
2017-01-25T02:15:21.888Z,933.74
2017-01-25T02:15:50.096Z,933.71
2017-01-25T02:16:18.354Z,933.74
2017-01-25T02:16:46.567Z,933.79
2017-01-25T02:17:14.853Z,933.74
2017-01-25T02:17:43.110Z,933.74
2017-01-25T02:18:11.332Z,933.77
2017-01-25T02:18:39.510Z,933.78
2017-01-25T02:19:07.720Z,933.8
2017-01-25T02:19:35.862Z,933.79
2017-01-25T02:20:04.030Z,933.76
2017-01-25T02:20:32.259Z,933.77
2017-01-25T02:21:00.523Z,933.78
2017-01-25T02:21:28.700Z,933.74
2017-01-25T02:21:56.881Z,933.75
2017-01-25T02:22:25.023Z,933.74
2017-01-25T02:22:53.189Z,933.76
2017-01-25T02:23:21.400Z,933.69
2017-01-25T02:23:49.672Z,933.68
2017-01-25T02:24:17.835Z,933.67
2017-01-25T02:24:45.991Z,933.66
2017-01-25T02:25:14.135Z,933.66
2017-01-25T02:25:42.359Z,933.65
2017-01-25T02:26:10.544Z,933.66
2017-01-25T02:26:38.759Z,933.64
2017-01-25T02:27:06.908Z,933.67
2017-01-25T02:27:35.090Z,933.65
2017-01-25T02:28:03.280Z,933.66
2017-01-25T02:28:31.434Z,933.63
2017-01-25T02:28:59.591Z,933.66
2017-01-25T02:29:27.741Z,933.61
2017-01-25T02:29:56.031Z,933.61
2017-01-25T02:30:24.231Z,933.64
2017-01-25T02:30:52.370Z,933.58
2017-01-25T02:31:20.554Z,933.52
2017-01-25T02:31:48.697Z,933.53
2017-01-25T02:32:16.930Z,933.51
2017-01-25T02:32:45.085Z,933.45
2017-01-25T02:33:13.251Z,933.49
2017-01-25T02:33:41.384Z,933.47
2017-01-25T02:34:09.561Z,933.43
2017-01-25T02:34:37.728Z,933.46
2017-01-25T02:35:06.003Z,933.46
2017-01-25T02:35:34.168Z,933.47
2017-01-25T02:36:02.341Z,933.46
2017-01-25T02:36:30.506Z,933.46
2017-01-25T02:36:58.637Z,933.43
2017-01-25T02:37:26.910Z,933.45
2017-01-25T02:37:55.051Z,933.41
2017-01-25T02:38:23.283Z,933.44
2017-01-25T02:38:51.430Z,933.43
2017-01-25T02:39:19.585Z,933.43
2017-01-25T02:39:47.751Z,933.44
2017-01-25T02:40:15.955Z,933.45
2017-01-25T02:40:44.092Z,933.41
2017-01-25T02:41:12.416Z,933.43
2017-01-25T02:41:40.648Z,933.37
2017-01-25T02:42:08.863Z,933.36
2017-01-25T02:42:37.344Z,933.36
2017-01-25T02:43:05.721Z,933.31
2017-01-25T02:43:33.954Z,933.29
2017-01-25T02:44:02.211Z,933.3
2017-01-25T02:44:30.408Z,933.31
2017-01-25T02:44:58.605Z,933.32
2017-01-25T02:45:26.774Z,933.31
2017-01-25T02:45:54.963Z,933.36
2017-01-25T02:46:23.145Z,933.34
2017-01-25T02:46:51.322Z,933.34
2017-01-25T02:47:19.471Z,933.33
2017-01-25T02:47:47.662Z,933.32
2017-01-25T02:48:15.822Z,933.34
2017-01-25T02:48:43.980Z,933.33
2017-01-25T02:49:12.171Z,933.28
2017-01-25T02:49:40.371Z,933.28
2017-01-25T02:50:08.524Z,933.26
2017-01-25T02:50:36.699Z,933.27
2017-01-25T02:51:04.933Z,933.23
2017-01-25T02:51:33.094Z,933.27
2017-01-25T02:52:01.267Z,933.26
2017-01-25T02:52:29.413Z,933.22
2017-01-25T02:52:57.638Z,933.27
2017-01-25T02:53:26.243Z,933.28
2017-01-25T02:53:54.762Z,933.29
2017-01-25T02:54:22.896Z,933.29
2017-01-25T02:54:51.042Z,933.27
2017-01-25T02:55:19.289Z,933.26
2017-01-25T02:55:47.464Z,933.3
2017-01-25T02:56:15.621Z,933.27
2017-01-25T02:56:43.785Z,933.3
2017-01-25T02:57:11.929Z,933.3
2017-01-25T02:57:40.104Z,933.28
2017-01-25T02:58:08.291Z,933.26
2017-01-25T02:58:36.471Z,933.26
2017-01-25T02:59:04.762Z,933.27
2017-01-25T02:59:33.021Z,933.22
2017-01-25T03:00:01.196Z,933.29
2017-01-25T03:00:29.337Z,933.21
2017-01-25T03:00:57.562Z,933.28
2017-01-25T03:01:25.766Z,933.27
2017-01-25T03:01:53.924Z,933.28
2017-01-25T03:02:22.083Z,933.3
2017-01-25T03:02:50.603Z,933.28
2017-01-25T03:03:18.801Z,933.29
2017-01-25T03:03:46.953Z,933.35
2017-01-25T03:04:15.106Z,933.31
2017-01-25T03:04:43.292Z,933.3
2017-01-25T03:05:11.448Z,933.25
2017-01-25T03:05:39.652Z,933.22
2017-01-25T03:06:07.851Z,933.29
2017-01-25T03:06:36.099Z,933.23
2017-01-25T03:07:04.288Z,933.29
2017-01-25T03:07:32.603Z,933.25
2017-01-25T03:08:00.761Z,933.25
2017-01-25T03:08:29.025Z,933.26
2017-01-25T03:08:57.171Z,933.27
2017-01-25T03:09:25.426Z,933.26
2017-01-25T03:09:53.588Z,933.3
2017-01-25T03:10:21.723Z,933.25
2017-01-25T03:10:49.948Z,933.27
2017-01-25T03:11:18.092Z,933.27
2017-01-25T03:11:46.259Z,933.27
2017-01-25T03:12:14.385Z,933.28
2017-01-25T03:12:42.506Z,933.26
2017-01-25T03:13:10.653Z,933.26
2017-01-25T03:13:38.808Z,933.29
2017-01-25T03:14:07.066Z,933.28
2017-01-25T03:14:35.209Z,933.26
2017-01-25T03:15:03.420Z,933.26
2017-01-25T03:15:31.580Z,933.27
2017-01-25T03:15:59.745Z,933.23
2017-01-25T03:16:27.892Z,933.24
2017-01-25T03:16:56.056Z,933.29
2017-01-25T03:17:24.211Z,933.27
2017-01-25T03:17:52.394Z,933.26
2017-01-25T03:18:20.548Z,933.29
2017-01-25T03:18:48.733Z,933.27
2017-01-25T03:19:16.873Z,933.27
2017-01-25T03:19:45.161Z,933.28
2017-01-25T03:20:13.343Z,933.28
2017-01-25T03:20:41.505Z,933.24
2017-01-25T03:21:09.652Z,933.27
2017-01-25T03:21:37.801Z,933.25
2017-01-25T03:22:05.953Z,933.27
2017-01-25T03:22:34.202Z,933.26
2017-01-25T03:23:02.456Z,933.24
2017-01-25T03:23:30.685Z,933.26
2017-01-25T03:23:58.851Z,933.22
2017-01-25T03:24:27.021Z,933.2
2017-01-25T03:24:55.203Z,933.23
2017-01-25T03:25:23.668Z,933.25
2017-01-25T03:25:51.837Z,933.25
2017-01-25T03:26:20.083Z,933.25
2017-01-25T03:26:48.309Z,933.28
2017-01-25T03:27:16.498Z,933.27
2017-01-25T03:27:44.737Z,933.24
2017-01-25T03:28:12.874Z,933.28
2017-01-25T03:28:41.056Z,933.27
2017-01-25T03:29:09.250Z,933.26
2017-01-25T03:29:37.385Z,933.2
2017-01-25T03:30:07.321Z,933.21
2017-01-25T03:30:35.475Z,933.22
2017-01-25T03:31:03.638Z,933.2
2017-01-25T03:31:31.801Z,933.19
2017-01-25T03:32:00.050Z,933.19
2017-01-25T03:32:28.221Z,933.14
2017-01-25T03:32:56.383Z,933.19
2017-01-25T03:33:24.517Z,933.18
2017-01-25T03:33:52.818Z,933.19
2017-01-25T03:34:20.966Z,933.18
2017-01-25T03:34:49.132Z,933.16
2017-01-25T03:35:17.285Z,933.14
2017-01-25T03:35:45.457Z,933.15
2017-01-25T03:36:13.613Z,933.15
2017-01-25T03:36:41.762Z,933.17
2017-01-25T03:37:09.915Z,933.13
2017-01-25T03:37:38.100Z,933.13
2017-01-25T03:38:06.263Z,933.08
2017-01-25T03:38:34.448Z,933.1
2017-01-25T03:39:02.666Z,933.12
2017-01-25T03:39:30.830Z,933.07
2017-01-25T03:39:59.005Z,933.11
2017-01-25T03:40:27.165Z,933.1
2017-01-25T03:40:55.352Z,933.06
2017-01-25T03:41:23.529Z,933.04
2017-01-25T03:41:51.695Z,933.05
2017-01-25T03:42:19.869Z,933.05
2017-01-25T03:42:48.013Z,933.06
2017-01-25T03:43:16.183Z,933.05
2017-01-25T03:43:44.371Z,933.05
2017-01-25T03:44:12.517Z,933
2017-01-25T03:44:40.760Z,933.01
2017-01-25T03:45:08.934Z,933
2017-01-25T03:45:37.211Z,933.02
2017-01-25T03:46:05.360Z,932.99
2017-01-25T03:46:33.645Z,932.98
2017-01-25T03:47:01.808Z,932.95
2017-01-25T03:47:30.047Z,932.94
2017-01-25T03:47:58.202Z,932.96
2017-01-25T03:48:26.359Z,932.93
2017-01-25T03:48:54.498Z,932.93
2017-01-25T03:49:22.653Z,932.93
2017-01-25T03:49:50.888Z,932.92
2017-01-25T03:50:19.069Z,932.92
2017-01-25T03:50:47.264Z,932.86
2017-01-25T03:51:15.442Z,932.87
2017-01-25T03:51:43.715Z,932.83
2017-01-25T03:52:11.837Z,932.86
2017-01-25T03:52:40.003Z,932.83
2017-01-25T03:53:08.159Z,932.85
2017-01-25T03:53:36.324Z,932.8
2017-01-25T03:54:04.500Z,932.82
2017-01-25T03:54:32.677Z,932.81
2017-01-25T03:55:00.959Z,932.85
2017-01-25T03:55:29.145Z,932.86
2017-01-25T03:55:57.308Z,932.85
2017-01-25T03:56:25.474Z,932.87
2017-01-25T03:56:53.847Z,932.84
2017-01-25T03:57:21.989Z,932.84
2017-01-25T03:57:50.129Z,932.88
2017-01-25T03:58:18.357Z,932.88
2017-01-25T03:58:46.499Z,932.91
2017-01-25T03:59:14.677Z,932.88
2017-01-25T03:59:47.165Z,932.87
2017-01-25T04:00:15.344Z,932.91
2017-01-25T04:00:43.493Z,932.89
2017-01-25T04:01:11.768Z,932.89
2017-01-25T04:01:39.942Z,932.9
2017-01-25T04:02:08.259Z,932.88
2017-01-25T04:02:36.396Z,932.85
2017-01-25T04:03:04.549Z,932.87
2017-01-25T04:03:32.738Z,932.86
2017-01-25T04:04:00.942Z,932.87
2017-01-25T04:04:29.214Z,932.89
2017-01-25T04:04:57.360Z,932.87
2017-01-25T04:05:25.530Z,932.86
2017-01-25T04:05:53.682Z,932.86
2017-01-25T04:06:21.916Z,932.84
2017-01-25T04:06:50.122Z,932.83
2017-01-25T04:07:18.306Z,932.84
2017-01-25T04:07:46.437Z,932.81
2017-01-25T04:08:14.672Z,932.78
2017-01-25T04:08:42.973Z,932.79
2017-01-25T04:09:11.136Z,932.77
2017-01-25T04:09:39.295Z,932.76
2017-01-25T04:10:07.512Z,932.7
2017-01-25T04:10:35.675Z,932.73
2017-01-25T04:11:03.840Z,932.71
2017-01-25T04:11:31.993Z,932.71
2017-01-25T04:12:00.149Z,932.73
2017-01-25T04:12:28.276Z,932.71
2017-01-25T04:12:56.552Z,932.74
2017-01-25T04:13:24.734Z,932.73
2017-01-25T04:13:52.916Z,932.7
2017-01-25T04:14:21.100Z,932.67
2017-01-25T04:14:49.259Z,932.66
2017-01-25T04:15:17.495Z,932.69
2017-01-25T04:15:45.659Z,932.66
2017-01-25T04:16:13.814Z,932.63
2017-01-25T04:16:42.017Z,932.62
2017-01-25T04:17:10.213Z,932.61
2017-01-25T04:17:38.378Z,932.58
2017-01-25T04:18:06.601Z,932.56
2017-01-25T04:18:34.834Z,932.6
2017-01-25T04:19:03.131Z,932.58
2017-01-25T04:19:31.503Z,932.57
2017-01-25T04:19:59.889Z,932.57
2017-01-25T04:20:28.238Z,932.54
2017-01-25T04:20:56.775Z,932.52
2017-01-25T04:21:25.199Z,932.55
2017-01-25T04:21:53.633Z,932.54
2017-01-25T04:22:21.856Z,932.5
2017-01-25T04:22:50.136Z,932.49
2017-01-25T04:23:18.518Z,932.53
2017-01-25T04:23:46.734Z,932.5
2017-01-25T04:24:14.890Z,932.5
2017-01-25T04:24:43.071Z,932.51
2017-01-25T04:25:11.258Z,932.48
2017-01-25T04:25:39.536Z,932.48
2017-01-25T04:26:07.755Z,932.47
2017-01-25T04:26:35.923Z,932.46
2017-01-25T04:27:04.644Z,932.44
2017-01-25T04:27:33.856Z,932.41
2017-01-25T04:28:02.008Z,932.44
2017-01-25T04:28:30.328Z,932.42
2017-01-25T04:28:58.491Z,932.39
2017-01-25T04:29:26.843Z,932.41
2017-01-25T04:29:55.234Z,932.4
2017-01-25T04:30:23.409Z,932.39
2017-01-25T04:30:51.593Z,932.36
2017-01-25T04:31:19.745Z,932.36
2017-01-25T04:31:47.999Z,932.33
2017-01-25T04:32:16.214Z,932.31
2017-01-25T04:32:44.397Z,932.3
2017-01-25T04:33:12.571Z,932.29
2017-01-25T04:33:40.779Z,932.28
2017-01-25T04:34:08.925Z,932.26
2017-01-25T04:34:37.082Z,932.26
2017-01-25T04:35:05.201Z,932.27
2017-01-25T04:35:33.380Z,932.23
2017-01-25T04:36:01.649Z,932.21
2017-01-25T04:36:29.813Z,932.24
2017-01-25T04:36:57.959Z,932.24
2017-01-25T04:37:26.118Z,932.23
2017-01-25T04:37:54.362Z,932.25
2017-01-25T04:38:22.809Z,932.25
2017-01-25T04:38:51.049Z,932.24
2017-01-25T04:39:19.176Z,932.24
2017-01-25T04:39:47.313Z,932.2
2017-01-25T04:40:15.481Z,932.24
2017-01-25T04:40:43.653Z,932.27
2017-01-25T04:41:11.987Z,932.27
2017-01-25T04:41:40.247Z,932.29
2017-01-25T04:42:08.775Z,932.27
2017-01-25T04:42:36.946Z,932.29
2017-01-25T04:43:05.078Z,932.29
2017-01-25T04:43:33.266Z,932.28
2017-01-25T04:44:01.538Z,932.3
2017-01-25T04:44:29.858Z,932.31
2017-01-25T04:44:58.013Z,932.32
2017-01-25T04:45:26.152Z,932.33
2017-01-25T04:45:54.318Z,932.32
2017-01-25T04:46:22.530Z,932.32
2017-01-25T04:46:50.686Z,932.33
2017-01-25T04:47:19.046Z,932.34
2017-01-25T04:47:47.233Z,932.32
2017-01-25T04:48:15.425Z,932.37
2017-01-25T04:48:43.754Z,932.32
2017-01-25T04:49:11.916Z,932.34
2017-01-25T04:49:40.104Z,932.33
2017-01-25T04:50:08.270Z,932.31
2017-01-25T04:50:36.469Z,932.31
2017-01-25T04:51:04.652Z,932.29
2017-01-25T04:51:32.814Z,932.29
2017-01-25T04:52:01.110Z,932.3
2017-01-25T04:52:29.269Z,932.32
2017-01-25T04:52:57.548Z,932.35
2017-01-25T04:53:25.723Z,932.28
2017-01-25T04:53:53.899Z,932.31
2017-01-25T04:54:22.053Z,932.3
2017-01-25T04:54:50.342Z,932.34
2017-01-25T04:55:18.507Z,932.32
2017-01-25T04:55:46.670Z,932.31
2017-01-25T04:56:14.820Z,932.29
2017-01-25T04:56:42.996Z,932.32
2017-01-25T04:57:11.160Z,932.28
2017-01-25T04:57:39.401Z,932.24
2017-01-25T04:58:07.543Z,932.27
2017-01-25T04:58:35.768Z,932.29
2017-01-25T04:59:03.923Z,932.23
2017-01-25T04:59:32.716Z,932.26
2017-01-25T05:00:00.892Z,932.24
2017-01-25T05:00:29.055Z,932.27
2017-01-25T05:00:57.428Z,932.22
2017-01-25T05:01:25.637Z,932.26
2017-01-25T05:01:53.808Z,932.23
2017-01-25T05:02:22.083Z,932.19
2017-01-25T05:02:50.271Z,932.18
2017-01-25T05:03:18.435Z,932.15
2017-01-25T05:03:46.687Z,932.13
2017-01-25T05:04:14.866Z,932.17
2017-01-25T05:04:43.074Z,932.13
2017-01-25T05:05:11.230Z,932.08
2017-01-25T05:05:39.428Z,932.1
2017-01-25T05:06:07.633Z,932.08
2017-01-25T05:06:35.891Z,932.09
2017-01-25T05:07:04.021Z,932.07
2017-01-25T05:07:32.384Z,932.06
2017-01-25T05:08:00.541Z,932.06
2017-01-25T05:08:28.809Z,932.05
2017-01-25T05:08:56.951Z,932.06
2017-01-25T05:09:25.130Z,932.02
2017-01-25T05:09:53.276Z,932.05
2017-01-25T05:10:21.446Z,932.06
2017-01-25T05:10:49.623Z,932.02
2017-01-25T05:11:17.783Z,932.04
2017-01-25T05:11:45.987Z,932.02
2017-01-25T05:12:14.204Z,932.02
2017-01-25T05:12:42.749Z,931.99
2017-01-25T05:13:10.984Z,932
2017-01-25T05:13:39.125Z,931.98
2017-01-25T05:14:07.379Z,931.99
2017-01-25T05:14:35.531Z,932.02
2017-01-25T05:15:03.680Z,932.01
2017-01-25T05:15:31.839Z,931.96
2017-01-25T05:15:59.982Z,931.96
2017-01-25T05:16:28.130Z,931.94
2017-01-25T05:16:56.299Z,931.89
2017-01-25T05:17:24.470Z,931.92
2017-01-25T05:17:52.649Z,931.92
2017-01-25T05:18:20.918Z,931.97
2017-01-25T05:18:49.191Z,931.96
2017-01-25T05:19:17.357Z,931.95
2017-01-25T05:19:45.500Z,931.88
2017-01-25T05:20:13.649Z,931.88
2017-01-25T05:20:41.782Z,931.89
2017-01-25T05:21:10.077Z,931.9
2017-01-25T05:21:38.248Z,931.94
2017-01-25T05:22:06.436Z,931.91
2017-01-25T05:22:34.604Z,931.93
2017-01-25T05:23:02.789Z,931.91
2017-01-25T05:23:30.987Z,931.9
2017-01-25T05:23:59.160Z,931.84
2017-01-25T05:24:27.420Z,931.83
2017-01-25T05:24:55.566Z,931.87
2017-01-25T05:25:23.746Z,931.84
2017-01-25T05:25:51.922Z,931.83
2017-01-25T05:26:20.075Z,931.82
2017-01-25T05:26:48.257Z,931.77
2017-01-25T05:27:16.426Z,931.8
2017-01-25T05:27:44.577Z,931.76
2017-01-25T05:28:12.743Z,931.76
2017-01-25T05:28:40.897Z,931.76
2017-01-25T05:29:09.066Z,931.75
2017-01-25T05:29:37.236Z,931.73
2017-01-25T05:30:05.397Z,931.73
2017-01-25T05:30:33.640Z,931.74
2017-01-25T05:31:01.806Z,931.7
2017-01-25T05:31:29.987Z,931.68
2017-01-25T05:31:58.144Z,931.7
2017-01-25T05:32:26.315Z,931.69
2017-01-25T05:32:54.472Z,931.68
2017-01-25T05:33:22.683Z,931.63
2017-01-25T05:33:50.818Z,931.66
2017-01-25T05:34:18.971Z,931.63
2017-01-25T05:34:47.145Z,931.65
2017-01-25T05:35:15.354Z,931.6
2017-01-25T05:35:43.687Z,931.62
2017-01-25T05:36:11.830Z,931.61
2017-01-25T05:36:39.991Z,931.63
2017-01-25T05:37:08.153Z,931.62
2017-01-25T05:37:36.311Z,931.61
2017-01-25T05:38:04.469Z,931.63
2017-01-25T05:38:32.626Z,931.57
2017-01-25T05:39:00.784Z,931.62
2017-01-25T05:39:28.931Z,931.6
2017-01-25T05:39:57.111Z,931.61
2017-01-25T05:40:25.372Z,931.58
2017-01-25T05:40:53.663Z,931.57
2017-01-25T05:41:21.867Z,931.58
2017-01-25T05:41:50.049Z,931.58
2017-01-25T05:42:18.314Z,931.58
2017-01-25T05:42:46.470Z,931.57
2017-01-25T05:43:14.619Z,931.58
2017-01-25T05:43:42.888Z,931.56
2017-01-25T05:44:11.030Z,931.57
2017-01-25T05:44:39.248Z,931.53
2017-01-25T05:45:07.418Z,931.58
2017-01-25T05:45:35.600Z,931.59
2017-01-25T05:46:03.755Z,931.59
2017-01-25T05:46:32.059Z,931.56
2017-01-25T05:47:00.249Z,931.58
2017-01-25T05:47:28.519Z,931.56
2017-01-25T05:47:56.688Z,931.57
2017-01-25T05:48:24.973Z,931.58
2017-01-25T05:48:53.134Z,931.59
2017-01-25T05:49:21.289Z,931.58
2017-01-25T05:49:49.457Z,931.55
2017-01-25T05:50:17.623Z,931.59
2017-01-25T05:50:45.809Z,931.58
2017-01-25T05:51:13.963Z,931.56
2017-01-25T05:51:42.233Z,931.58
2017-01-25T05:52:10.412Z,931.58
2017-01-25T05:52:38.592Z,931.61
2017-01-25T05:53:06.749Z,931.57
2017-01-25T05:53:34.897Z,931.54